sensor_id;sensor_type;location;lat;lon;timestamp;temperature;humidity
25753;DHT22;13600;50.816;4.416;2022-11-20T00:00:11;6.60;99.90
25753;DHT22;13600;50.816;4.416;2022-11-20T00:02:37;6.80;99.90
25753;DHT22;13600;50.816;4.416;2022-11-20T00:05:03;7.00;99.90
25753;DHT22;13600;50.816;4.416;2022-11-20T00:07:29;7.00;99.90
25753;DHT22;13600;50.816;4.416;2022-11-20T00:09:54;7.00;99.90
25753;DHT22;13600;50.816;4.416;2022-11-20T00:12:20;7.00;99.90
25753;DHT22;13600;50.816;4.416;2022-11-20T00:14:45;7.00;99.90
25753;DHT22;13600;50.816;4.416;2022-11-20T00:17:11;6.80;99.90
25753;DHT22;13600;50.816;4.416;2022-11-20T00:19:37;6.90;99.90
25753;DHT22;13600;50.816;4.416;2022-11-20T00:22:02;6.90;99.90
25753;DHT22;13600;50.816;4.416;2022-11-20T00:24:28;6.70;99.90
25753;DHT22;13600;50.816;4.416;2022-11-20T00:26:54;6.60;99.90
25753;DHT22;13600;50.816;4.416;2022-11-20T00:29:19;6.60;99.90
25753;DHT22;13600;50.816;4.416;2022-11-20T00:31:45;6.70;99.90
25753;DHT22;13600;50.816;4.416;2022-11-20T00:34:11;6.90;99.90
25753;DHT22;13600;50.816;4.416;2022-11-20T00:36:36;7.00;99.90
25753;DHT22;13600;50.816;4.416;2022-11-20T00:39:02;6.80;99.90
25753;DHT22;13600;50.816;4.416;2022-11-20T00:41:29;6.70;99.90
25753;DHT22;13600;50.816;4.416;2022-11-20T00:43:55;6.60;99.90
25753;DHT22;13600;50.816;4.416;2022-11-20T00:46:23;6.60;99.90
25753;DHT22;13600;50.816;4.416;2022-11-20T00:48:49;6.70;99.90
25753;DHT22;13600;50.816;4.416;2022-11-20T00:51:17;6.80;99.90
25753;DHT22;13600;50.816;4.416;2022-11-20T00:53:43;6.70;99.90
25753;DHT22;13600;50.816;4.416;2022-11-20T00:56:14;6.50;99.90
25753;DHT22;13600;50.816;4.416;2022-11-20T00:58:41;6.40;99.90
25753;DHT22;13600;50.816;4.416;2022-11-20T01:01:15;6.60;99.90
25753;DHT22;13600;50.816;4.416;2022-11-20T01:03:43;6.40;99.90
25753;DHT22;13600;50.816;4.416;2022-11-20T01:06:32;6.40;99.90
25753;DHT22;13600;50.816;4.416;2022-11-20T01:08:59;6.40;99.90
25753;DHT22;13600;50.816;4.416;2022-11-20T01:11:30;6.60;99.90
25753;DHT22;13600;50.816;4.416;2022-11-20T01:13:57;6.80;99.90
25753;DHT22;13600;50.816;4.416;2022-11-20T01:16:35;6.80;99.90
25753;DHT22;13600;50.816;4.416;2022-11-20T01:19:03;6.80;99.90
25753;DHT22;13600;50.816;4.416;2022-11-20T01:21:34;6.80;99.90
25753;DHT22;13600;50.816;4.416;2022-11-20T01:24:01;6.70;99.90
25753;DHT22;13600;50.816;4.416;2022-11-20T01:26:30;6.60;99.90
25753;DHT22;13600;50.816;4.416;2022-11-20T01:28:56;6.70;99.90
25753;DHT22;13600;50.816;4.416;2022-11-20T01:31:28;6.50;99.90
25753;DHT22;13600;50.816;4.416;2022-11-20T01:33:56;6.40;99.90
25753;DHT22;13600;50.816;4.416;2022-11-20T01:36:24;6.30;99.90
25753;DHT22;13600;50.816;4.416;2022-11-20T01:38:54;6.20;99.90
25753;DHT22;13600;50.816;4.416;2022-11-20T01:41:21;6.30;99.90
25753;DHT22;13600;50.816;4.416;2022-11-20T01:44:51;6.50;99.90
25753;DHT22;13600;50.816;4.416;2022-11-20T01:47:22;6.70;99.90
25753;DHT22;13600;50.816;4.416;2022-11-20T01:49:59;6.70;99.90
25753;DHT22;13600;50.816;4.416;2022-11-20T01:52:39;6.50;99.90
25753;DHT22;13600;50.816;4.416;2022-11-20T01:55:11;6.60;99.90
25753;DHT22;13600;50.816;4.416;2022-11-20T01:57:38;6.70;99.90
25753;DHT22;13600;50.816;4.416;2022-11-20T02:00:08;6.70;99.90
25753;DHT22;13600;50.816;4.416;2022-11-20T02:02:35;6.80;99.90
25753;DHT22;13600;50.816;4.416;2022-11-20T02:05:09;6.80;99.90
25753;DHT22;13600;50.816;4.416;2022-11-20T02:07:37;6.70;99.90
25753;DHT22;13600;50.816;4.416;2022-11-20T02:10:03;6.70;99.90
25753;DHT22;13600;50.816;4.416;2022-11-20T02:12:29;6.80;99.90
25753;DHT22;13600;50.816;4.416;2022-11-20T02:15:14;6.90;99.90
25753;DHT22;13600;50.816;4.416;2022-11-20T02:17:39;6.90;99.90
25753;DHT22;13600;50.816;4.416;2022-11-20T02:20:06;6.70;99.90
25753;DHT22;13600;50.816;4.416;2022-11-20T02:22:38;6.80;99.90
25753;DHT22;13600;50.816;4.416;2022-11-20T02:25:07;6.90;99.90
25753;DHT22;13600;50.816;4.416;2022-11-20T02:27:33;6.90;99.90
25753;DHT22;13600;50.816;4.416;2022-11-20T02:30:05;7.00;99.90
25753;DHT22;13600;50.816;4.416;2022-11-20T02:32:35;6.90;99.90
25753;DHT22;13600;50.816;4.416;2022-11-20T02:35:38;7.00;99.90
25753;DHT22;13600;50.816;4.416;2022-11-20T02:37:58;6.90;99.90
25753;DHT22;13600;50.816;4.416;2022-11-20T02:40:25;6.90;99.90
25753;DHT22;13600;50.816;4.416;2022-11-20T02:42:54;6.90;99.90
25753;DHT22;13600;50.816;4.416;2022-11-20T02:45:20;6.80;99.90
25753;DHT22;13600;50.816;4.416;2022-11-20T02:47:46;6.80;99.90
25753;DHT22;13600;50.816;4.416;2022-11-20T02:50:12;6.70;99.90
25753;DHT22;13600;50.816;4.416;2022-11-20T02:52:37;6.70;99.90
25753;DHT22;13600;50.816;4.416;2022-11-20T02:55:04;6.70;99.90
25753;DHT22;13600;50.816;4.416;2022-11-20T02:57:29;6.80;99.90
25753;DHT22;13600;50.816;4.416;2022-11-20T02:59:55;6.60;99.90
25753;DHT22;13600;50.816;4.416;2022-11-20T03:02:21;6.70;99.90
25753;DHT22;13600;50.816;4.416;2022-11-20T03:04:47;6.80;99.90
25753;DHT22;13600;50.816;4.416;2022-11-20T03:07:12;6.90;99.90
25753;DHT22;13600;50.816;4.416;2022-11-20T03:09:38;6.90;99.90
25753;DHT22;13600;50.816;4.416;2022-11-20T03:12:04;6.90;99.90
25753;DHT22;13600;50.816;4.416;2022-11-20T03:14:30;6.90;99.90
25753;DHT22;13600;50.816;4.416;2022-11-20T03:16:56;7.00;99.90
25753;DHT22;13600;50.816;4.416;2022-11-20T03:19:21;6.90;99.90
25753;DHT22;13600;50.816;4.416;2022-11-20T03:21:47;6.90;99.90
25753;DHT22;13600;50.816;4.416;2022-11-20T03:24:13;6.80;99.90
25753;DHT22;13600;50.816;4.416;2022-11-20T03:26:39;6.80;99.90
25753;DHT22;13600;50.816;4.416;2022-11-20T03:29:06;6.80;99.90
25753;DHT22;13600;50.816;4.416;2022-11-20T03:31:34;6.80;99.90
25753;DHT22;13600;50.816;4.416;2022-11-20T03:34:00;6.80;99.90
25753;DHT22;13600;50.816;4.416;2022-11-20T03:36:27;6.80;99.90
25753;DHT22;13600;50.816;4.416;2022-11-20T03:38:54;6.80;99.90
25753;DHT22;13600;50.816;4.416;2022-11-20T03:41:23;6.80;99.90
25753;DHT22;13600;50.816;4.416;2022-11-20T03:43:49;6.70;99.90
25753;DHT22;13600;50.816;4.416;2022-11-20T03:46:16;6.70;99.90
25753;DHT22;13600;50.816;4.416;2022-11-20T03:48:41;6.90;99.90
25753;DHT22;13600;50.816;4.416;2022-11-20T03:53:41;6.80;99.90
25753;DHT22;13600;50.816;4.416;2022-11-20T03:56:08;6.90;99.90
25753;DHT22;13600;50.816;4.416;2022-11-20T03:58:35;6.90;99.90
25753;DHT22;13600;50.816;4.416;2022-11-20T04:01:11;6.90;99.90
25753;DHT22;13600;50.816;4.416;2022-11-20T04:03:38;6.80;99.90
25753;DHT22;13600;50.816;4.416;2022-11-20T04:06:05;6.70;99.90
25753;DHT22;13600;50.816;4.416;2022-11-20T04:08:31;6.70;99.90
25753;DHT22;13600;50.816;4.416;2022-11-20T04:11:12;6.70;99.90
25753;DHT22;13600;50.816;4.416;2022-11-20T04:13:37;7.00;99.90
25753;DHT22;13600;50.816;4.416;2022-11-20T04:16:05;6.90;99.90
25753;DHT22;13600;50.816;4.416;2022-11-20T04:18:30;7.00;99.90
25753;DHT22;13600;50.816;4.416;2022-11-20T04:20:57;7.10;99.90
25753;DHT22;13600;50.816;4.416;2022-11-20T04:23:23;7.10;99.90
25753;DHT22;13600;50.816;4.416;2022-11-20T04:25:49;7.10;99.90
25753;DHT22;13600;50.816;4.416;2022-11-20T04:28:14;7.00;99.90
25753;DHT22;13600;50.816;4.416;2022-11-20T04:30:40;6.90;99.90
25753;DHT22;13600;50.816;4.416;2022-11-20T04:33:06;6.90;99.90
25753;DHT22;13600;50.816;4.416;2022-11-20T04:35:34;7.10;99.90
25753;DHT22;13600;50.816;4.416;2022-11-20T04:38:00;7.00;99.90
25753;DHT22;13600;50.816;4.416;2022-11-20T04:40:25;7.10;99.90
25753;DHT22;13600;50.816;4.416;2022-11-20T04:42:51;7.40;99.90
25753;DHT22;13600;50.816;4.416;2022-11-20T04:45:17;7.30;99.90
25753;DHT22;13600;50.816;4.416;2022-11-20T04:47:42;7.00;99.90
25753;DHT22;13600;50.816;4.416;2022-11-20T04:50:08;7.00;99.90
25753;DHT22;13600;50.816;4.416;2022-11-20T04:52:34;7.00;99.90
25753;DHT22;13600;50.816;4.416;2022-11-20T04:55:00;7.10;99.90
25753;DHT22;13600;50.816;4.416;2022-11-20T04:57:25;7.10;99.90
25753;DHT22;13600;50.816;4.416;2022-11-20T04:59:51;7.20;99.90
25753;DHT22;13600;50.816;4.416;2022-11-20T05:02:17;7.20;99.90
25753;DHT22;13600;50.816;4.416;2022-11-20T05:04:42;7.30;99.90
25753;DHT22;13600;50.816;4.416;2022-11-20T05:07:08;7.40;99.90
25753;DHT22;13600;50.816;4.416;2022-11-20T05:09:34;7.40;99.90
25753;DHT22;13600;50.816;4.416;2022-11-20T05:11:59;7.20;99.90
25753;DHT22;13600;50.816;4.416;2022-11-20T05:14:25;7.10;99.90
25753;DHT22;13600;50.816;4.416;2022-11-20T05:16:51;7.00;99.90
25753;DHT22;13600;50.816;4.416;2022-11-20T05:19:17;7.00;99.90
25753;DHT22;13600;50.816;4.416;2022-11-20T05:21:42;6.80;99.90
25753;DHT22;13600;50.816;4.416;2022-11-20T05:24:08;7.00;99.90
25753;DHT22;13600;50.816;4.416;2022-11-20T05:26:34;6.90;99.90
25753;DHT22;13600;50.816;4.416;2022-11-20T05:28:59;7.10;99.90
25753;DHT22;13600;50.816;4.416;2022-11-20T05:31:25;7.10;99.90
25753;DHT22;13600;50.816;4.416;2022-11-20T05:33:51;7.10;99.90
25753;DHT22;13600;50.816;4.416;2022-11-20T05:36:17;7.20;99.90
25753;DHT22;13600;50.816;4.416;2022-11-20T05:38:43;7.20;99.90
25753;DHT22;13600;50.816;4.416;2022-11-20T05:41:14;7.20;99.90
25753;DHT22;13600;50.816;4.416;2022-11-20T05:43:42;7.20;99.90
25753;DHT22;13600;50.816;4.416;2022-11-20T05:46:10;7.30;99.90
25753;DHT22;13600;50.816;4.416;2022-11-20T05:48:36;7.20;99.90
25753;DHT22;13600;50.816;4.416;2022-11-20T05:51:04;7.10;99.90
25753;DHT22;13600;50.816;4.416;2022-11-20T05:53:32;7.10;99.90
25753;DHT22;13600;50.816;4.416;2022-11-20T05:55:59;7.30;99.90
25753;DHT22;13600;50.816;4.416;2022-11-20T05:58:25;7.40;99.90
25753;DHT22;13600;50.816;4.416;2022-11-20T06:00:51;7.40;99.90
25753;DHT22;13600;50.816;4.416;2022-11-20T06:03:17;7.40;99.90
25753;DHT22;13600;50.816;4.416;2022-11-20T06:05:43;7.30;99.90
25753;DHT22;13600;50.816;4.416;2022-11-20T06:08:09;7.30;99.90
25753;DHT22;13600;50.816;4.416;2022-11-20T06:10:34;7.10;99.90
25753;DHT22;13600;50.816;4.416;2022-11-20T06:13:00;7.10;99.90
25753;DHT22;13600;50.816;4.416;2022-11-20T06:15:25;7.10;99.90
25753;DHT22;13600;50.816;4.416;2022-11-20T06:17:55;7.20;99.90
25753;DHT22;13600;50.816;4.416;2022-11-20T06:20:21;7.20;99.90
25753;DHT22;13600;50.816;4.416;2022-11-20T06:22:47;7.10;99.90
25753;DHT22;13600;50.816;4.416;2022-11-20T06:25:13;7.10;99.90
25753;DHT22;13600;50.816;4.416;2022-11-20T06:27:39;7.00;99.90
25753;DHT22;13600;50.816;4.416;2022-11-20T06:30:05;7.00;99.90
25753;DHT22;13600;50.816;4.416;2022-11-20T06:32:32;7.00;99.90
25753;DHT22;13600;50.816;4.416;2022-11-20T06:35:00;7.00;99.90
25753;DHT22;13600;50.816;4.416;2022-11-20T06:37:26;7.10;99.90
25753;DHT22;13600;50.816;4.416;2022-11-20T06:39:53;7.10;99.90
25753;DHT22;13600;50.816;4.416;2022-11-20T06:42:18;7.10;99.90
25753;DHT22;13600;50.816;4.416;2022-11-20T06:44:44;7.20;99.90
25753;DHT22;13600;50.816;4.416;2022-11-20T06:47:10;7.20;99.90
25753;DHT22;13600;50.816;4.416;2022-11-20T06:49:36;7.10;99.90
25753;DHT22;13600;50.816;4.416;2022-11-20T06:52:04;7.00;99.90
25753;DHT22;13600;50.816;4.416;2022-11-20T06:54:29;7.00;99.90
25753;DHT22;13600;50.816;4.416;2022-11-20T06:56:55;7.10;99.90
25753;DHT22;13600;50.816;4.416;2022-11-20T06:59:21;7.20;99.90
25753;DHT22;13600;50.816;4.416;2022-11-20T07:01:47;7.30;99.90
25753;DHT22;13600;50.816;4.416;2022-11-20T07:04:12;7.40;99.90
25753;DHT22;13600;50.816;4.416;2022-11-20T07:06:38;7.30;99.90
25753;DHT22;13600;50.816;4.416;2022-11-20T07:09:04;7.20;99.90
25753;DHT22;13600;50.816;4.416;2022-11-20T07:11:30;7.20;99.90
25753;DHT22;13600;50.816;4.416;2022-11-20T07:13:56;7.10;99.90
25753;DHT22;13600;50.816;4.416;2022-11-20T07:16:22;7.10;99.90
25753;DHT22;13600;50.816;4.416;2022-11-20T07:18:48;7.10;99.90
25753;DHT22;13600;50.816;4.416;2022-11-20T07:21:14;7.00;99.90
25753;DHT22;13600;50.816;4.416;2022-11-20T07:23:40;7.20;99.90
25753;DHT22;13600;50.816;4.416;2022-11-20T07:26:07;7.40;99.90
25753;DHT22;13600;50.816;4.416;2022-11-20T07:28:33;7.50;99.90
25753;DHT22;13600;50.816;4.416;2022-11-20T07:30:59;7.50;99.90
25753;DHT22;13600;50.816;4.416;2022-11-20T07:33:25;7.60;99.90
25753;DHT22;13600;50.816;4.416;2022-11-20T07:35:51;7.70;99.90
25753;DHT22;13600;50.816;4.416;2022-11-20T07:38:16;7.80;99.90
25753;DHT22;13600;50.816;4.416;2022-11-20T07:40:42;7.80;99.90
25753;DHT22;13600;50.816;4.416;2022-11-20T07:43:08;7.80;99.90
25753;DHT22;13600;50.816;4.416;2022-11-20T07:45:34;7.70;99.90
25753;DHT22;13600;50.816;4.416;2022-11-20T07:48:00;7.70;99.90
25753;DHT22;13600;50.816;4.416;2022-11-20T07:50:25;7.70;99.90
25753;DHT22;13600;50.816;4.416;2022-11-20T07:52:51;7.60;99.90
25753;DHT22;13600;50.816;4.416;2022-11-20T07:55:17;7.70;99.90
25753;DHT22;13600;50.816;4.416;2022-11-20T07:57:43;7.70;99.90
25753;DHT22;13600;50.816;4.416;2022-11-20T08:00:10;7.60;99.90
25753;DHT22;13600;50.816;4.416;2022-11-20T08:02:42;7.50;99.90
25753;DHT22;13600;50.816;4.416;2022-11-20T08:05:11;7.60;99.90
25753;DHT22;13600;50.816;4.416;2022-11-20T08:07:38;7.80;99.90
25753;DHT22;13600;50.816;4.416;2022-11-20T08:10:04;7.90;99.90
25753;DHT22;13600;50.816;4.416;2022-11-20T08:12:30;7.90;99.90
25753;DHT22;13600;50.816;4.416;2022-11-20T08:15:14;8.10;99.90
25753;DHT22;13600;50.816;4.416;2022-11-20T08:17:40;8.00;99.90
25753;DHT22;13600;50.816;4.416;2022-11-20T08:20:06;8.00;99.90
25753;DHT22;13600;50.816;4.416;2022-11-20T08:22:31;8.10;99.90
25753;DHT22;13600;50.816;4.416;2022-11-20T08:24:57;8.30;99.90
25753;DHT22;13600;50.816;4.416;2022-11-20T08:27:23;8.40;99.90
25753;DHT22;13600;50.816;4.416;2022-11-20T08:29:48;8.40;99.90
25753;DHT22;13600;50.816;4.416;2022-11-20T08:32:14;8.50;99.90
25753;DHT22;13600;50.816;4.416;2022-11-20T08:34:40;8.50;99.90
25753;DHT22;13600;50.816;4.416;2022-11-20T08:37:05;8.50;99.90
25753;DHT22;13600;50.816;4.416;2022-11-20T08:39:31;8.40;99.90
25753;DHT22;13600;50.816;4.416;2022-11-20T08:41:57;8.50;99.90
25753;DHT22;13600;50.816;4.416;2022-11-20T08:44:22;8.50;99.90
25753;DHT22;13600;50.816;4.416;2022-11-20T08:46:48;8.60;99.90
25753;DHT22;13600;50.816;4.416;2022-11-20T08:49:14;8.50;99.90
25753;DHT22;13600;50.816;4.416;2022-11-20T08:51:40;8.50;99.90
25753;DHT22;13600;50.816;4.416;2022-11-20T08:54:07;8.60;99.90
25753;DHT22;13600;50.816;4.416;2022-11-20T08:56:34;8.60;99.90
25753;DHT22;13600;50.816;4.416;2022-11-20T08:59:00;8.60;99.90
25753;DHT22;13600;50.816;4.416;2022-11-20T09:01:26;8.60;99.90
25753;DHT22;13600;50.816;4.416;2022-11-20T09:03:52;8.70;99.90
25753;DHT22;13600;50.816;4.416;2022-11-20T09:06:20;8.70;99.90
25753;DHT22;13600;50.816;4.416;2022-11-20T09:08:45;8.80;99.90
25753;DHT22;13600;50.816;4.416;2022-11-20T09:11:11;8.90;99.90
25753;DHT22;13600;50.816;4.416;2022-11-20T09:13:37;9.00;99.90
25753;DHT22;13600;50.816;4.416;2022-11-20T09:16:05;9.00;99.90
25753;DHT22;13600;50.816;4.416;2022-11-20T09:18:32;9.10;99.90
25753;DHT22;13600;50.816;4.416;2022-11-20T09:20:58;9.10;99.90
25753;DHT22;13600;50.816;4.416;2022-11-20T09:23:25;9.40;99.90
25753;DHT22;13600;50.816;4.416;2022-11-20T09:25:51;9.40;99.90
25753;DHT22;13600;50.816;4.416;2022-11-20T09:28:18;9.40;99.90
25753;DHT22;13600;50.816;4.416;2022-11-20T09:30:44;9.40;99.90
25753;DHT22;13600;50.816;4.416;2022-11-20T09:33:10;9.40;99.90
25753;DHT22;13600;50.816;4.416;2022-11-20T09:35:36;9.50;99.90
25753;DHT22;13600;50.816;4.416;2022-11-20T09:38:06;9.30;99.90
25753;DHT22;13600;50.816;4.416;2022-11-20T09:40:32;9.50;99.90
25753;DHT22;13600;50.816;4.416;2022-11-20T09:45:54;9.70;99.90
25753;DHT22;13600;50.816;4.416;2022-11-20T09:51:05;9.70;99.90
25753;DHT22;13600;50.816;4.416;2022-11-20T09:56:30;9.60;99.90
25753;DHT22;13600;50.816;4.416;2022-11-20T09:58:59;9.50;99.90
25753;DHT22;13600;50.816;4.416;2022-11-20T10:01:29;9.60;99.90
25753;DHT22;13600;50.816;4.416;2022-11-20T10:04:18;9.70;99.90
25753;DHT22;13600;50.816;4.416;2022-11-20T10:09:38;9.90;99.90
25753;DHT22;13600;50.816;4.416;2022-11-20T10:14:56;10.10;99.90
25753;DHT22;13600;50.816;4.416;2022-11-20T10:17:51;10.10;99.90
25753;DHT22;13600;50.816;4.416;2022-11-20T10:20:43;9.90;99.90
25753;DHT22;13600;50.816;4.416;2022-11-20T10:26:26;10.00;99.90
25753;DHT22;13600;50.816;4.416;2022-11-20T10:29:05;10.00;99.90
25753;DHT22;13600;50.816;4.416;2022-11-20T10:31:36;10.10;99.90
25753;DHT22;13600;50.816;4.416;2022-11-20T10:34:18;10.30;99.90
25753;DHT22;13600;50.816;4.416;2022-11-20T10:37:10;10.60;99.90
25753;DHT22;13600;50.816;4.416;2022-11-20T10:42:30;11.10;99.90
25753;DHT22;13600;50.816;4.416;2022-11-20T10:48:14;11.20;99.90
25753;DHT22;13600;50.816;4.416;2022-11-20T10:50:55;11.30;99.90
25753;DHT22;13600;50.816;4.416;2022-11-20T10:56:27;11.20;99.90
25753;DHT22;13600;50.816;4.416;2022-11-20T10:59:24;11.10;99.90
25753;DHT22;13600;50.816;4.416;2022-11-20T11:01:52;11.10;99.90
25753;DHT22;13600;50.816;4.416;2022-11-20T11:04:40;11.10;99.90
25753;DHT22;13600;50.816;4.416;2022-11-20T11:07:22;11.10;99.90
25753;DHT22;13600;50.816;4.416;2022-11-20T11:09:53;11.40;99.90
25753;DHT22;13600;50.816;4.416;2022-11-20T11:12:21;11.40;99.90
25753;DHT22;13600;50.816;4.416;2022-11-20T11:14:50;11.30;99.90
25753;DHT22;13600;50.816;4.416;2022-11-20T11:17:27;11.10;99.90
25753;DHT22;13600;50.816;4.416;2022-11-20T11:20:00;11.10;99.90
25753;DHT22;13600;50.816;4.416;2022-11-20T11:22:27;11.20;99.90
25753;DHT22;13600;50.816;4.416;2022-11-20T11:24:53;11.20;99.90
25753;DHT22;13600;50.816;4.416;2022-11-20T11:27:19;11.10;99.90
25753;DHT22;13600;50.816;4.416;2022-11-20T11:29:46;11.00;99.90
25753;DHT22;13600;50.816;4.416;2022-11-20T11:32:14;10.90;99.90
25753;DHT22;13600;50.816;4.416;2022-11-20T11:34:40;10.90;99.90
25753;DHT22;13600;50.816;4.416;2022-11-20T11:37:15;11.00;99.90
25753;DHT22;13600;50.816;4.416;2022-11-20T11:39:43;11.10;99.90
25753;DHT22;13600;50.816;4.416;2022-11-20T11:42:16;10.90;99.90
25753;DHT22;13600;50.816;4.416;2022-11-20T11:44:47;10.90;99.90
25753;DHT22;13600;50.816;4.416;2022-11-20T11:47:42;10.60;99.90
25753;DHT22;13600;50.816;4.416;2022-11-20T11:55:53;10.20;99.90
25753;DHT22;13600;50.816;4.416;2022-11-20T11:58:51;9.80;99.90
25753;DHT22;13600;50.816;4.416;2022-11-20T12:04:19;9.70;99.90
25753;DHT22;13600;50.816;4.416;2022-11-20T12:06:51;9.70;99.90
25753;DHT22;13600;50.816;4.416;2022-11-20T12:09:20;9.60;99.90
25753;DHT22;13600;50.816;4.416;2022-11-20T12:12:01;9.60;99.90
25753;DHT22;13600;50.816;4.416;2022-11-20T12:14:39;9.60;99.90
25753;DHT22;13600;50.816;4.416;2022-11-20T12:17:16;9.50;99.90
25753;DHT22;13600;50.816;4.416;2022-11-20T12:19:43;9.40;99.90
25753;DHT22;13600;50.816;4.416;2022-11-20T12:24:57;9.30;99.90
25753;DHT22;13600;50.816;4.416;2022-11-20T12:36:01;9.30;99.90
25753;DHT22;13600;50.816;4.416;2022-11-20T12:44:43;9.10;99.90
25753;DHT22;13600;50.816;4.416;2022-11-20T12:53:25;9.10;99.90
25753;DHT22;13600;50.816;4.416;2022-11-20T13:01:56;9.10;99.90
25753;DHT22;13600;50.816;4.416;2022-11-20T13:07:07;9.10;99.90
25753;DHT22;13600;50.816;4.416;2022-11-20T13:09:40;9.10;99.90
25753;DHT22;13600;50.816;4.416;2022-11-20T13:12:15;9.10;99.90
25753;DHT22;13600;50.816;4.416;2022-11-20T13:14:48;9.00;99.90
25753;DHT22;13600;50.816;4.416;2022-11-20T13:17:43;9.00;99.90
25753;DHT22;13600;50.816;4.416;2022-11-20T13:20:17;9.00;99.90
25753;DHT22;13600;50.816;4.416;2022-11-20T13:22:48;9.00;99.90
25753;DHT22;13600;50.816;4.416;2022-11-20T13:25:31;8.90;99.90
25753;DHT22;13600;50.816;4.416;2022-11-20T13:27:59;9.00;99.90
25753;DHT22;13600;50.816;4.416;2022-11-20T13:30:26;9.00;99.90
25753;DHT22;13600;50.816;4.416;2022-11-20T13:32:56;9.00;99.90
25753;DHT22;13600;50.816;4.416;2022-11-20T13:35:40;8.90;99.90
25753;DHT22;13600;50.816;4.416;2022-11-20T13:40:32;8.90;99.90
25753;DHT22;13600;50.816;4.416;2022-11-20T13:45:34;8.70;99.90
25753;DHT22;13600;50.816;4.416;2022-11-20T13:48:04;8.60;99.90
25753;DHT22;13600;50.816;4.416;2022-11-20T14:01:28;8.90;99.90
25753;DHT22;13600;50.816;4.416;2022-11-20T14:03:57;8.90;99.90
25753;DHT22;13600;50.816;4.416;2022-11-20T14:06:32;8.90;99.90
25753;DHT22;13600;50.816;4.416;2022-11-20T14:08:59;9.00;99.90
25753;DHT22;13600;50.816;4.416;2022-11-20T14:11:29;9.10;99.90
25753;DHT22;13600;50.816;4.416;2022-11-20T14:14:03;9.10;99.90
25753;DHT22;13600;50.816;4.416;2022-11-20T14:16:36;9.00;99.90
25753;DHT22;13600;50.816;4.416;2022-11-20T14:19:27;9.00;99.90
25753;DHT22;13600;50.816;4.416;2022-11-20T14:22:06;9.00;99.90
25753;DHT22;13600;50.816;4.416;2022-11-20T14:24:32;9.10;99.90
25753;DHT22;13600;50.816;4.416;2022-11-20T14:26:58;9.10;99.90
25753;DHT22;13600;50.816;4.416;2022-11-20T14:29:29;9.00;99.90
25753;DHT22;13600;50.816;4.416;2022-11-20T14:31:58;9.10;99.90
25753;DHT22;13600;50.816;4.416;2022-11-20T14:34:30;9.10;99.90
25753;DHT22;13600;50.816;4.416;2022-11-20T14:37:01;9.10;99.90
25753;DHT22;13600;50.816;4.416;2022-11-20T14:39:37;9.10;99.90
25753;DHT22;13600;50.816;4.416;2022-11-20T14:42:24;9.10;99.90
25753;DHT22;13600;50.816;4.416;2022-11-20T14:44:52;9.10;99.90
25753;DHT22;13600;50.816;4.416;2022-11-20T14:47:22;9.10;99.90
25753;DHT22;13600;50.816;4.416;2022-11-20T14:49:49;9.20;99.90
25753;DHT22;13600;50.816;4.416;2022-11-20T14:52:23;9.20;99.90
25753;DHT22;13600;50.816;4.416;2022-11-20T14:54:57;9.20;99.90
25753;DHT22;13600;50.816;4.416;2022-11-20T14:57:32;9.10;99.90
25753;DHT22;13600;50.816;4.416;2022-11-20T15:02:47;9.10;99.90
25753;DHT22;13600;50.816;4.416;2022-11-20T15:05:14;9.10;99.90
25753;DHT22;13600;50.816;4.416;2022-11-20T15:07:46;9.10;99.90
25753;DHT22;13600;50.816;4.416;2022-11-20T15:10:23;9.20;99.90
25753;DHT22;13600;50.816;4.416;2022-11-20T15:15:35;9.30;99.90
25753;DHT22;13600;50.816;4.416;2022-11-20T15:18:02;9.30;99.90
25753;DHT22;13600;50.816;4.416;2022-11-20T15:20:31;9.30;99.90
25753;DHT22;13600;50.816;4.416;2022-11-20T15:22:58;9.40;99.90
25753;DHT22;13600;50.816;4.416;2022-11-20T15:25:24;9.30;99.90
25753;DHT22;13600;50.816;4.416;2022-11-20T15:27:54;9.40;99.90
25753;DHT22;13600;50.816;4.416;2022-11-20T15:30:21;9.40;99.90
25753;DHT22;13600;50.816;4.416;2022-11-20T15:32:47;9.40;99.90
25753;DHT22;13600;50.816;4.416;2022-11-20T15:35:14;9.40;99.90
25753;DHT22;13600;50.816;4.416;2022-11-20T15:37:40;9.40;99.90
25753;DHT22;13600;50.816;4.416;2022-11-20T15:40:07;9.40;99.90
25753;DHT22;13600;50.816;4.416;2022-11-20T15:42:34;9.40;99.90
25753;DHT22;13600;50.816;4.416;2022-11-20T15:45:00;9.50;99.90
25753;DHT22;13600;50.816;4.416;2022-11-20T15:47:29;9.50;99.90
25753;DHT22;13600;50.816;4.416;2022-11-20T15:49:55;9.50;99.90
25753;DHT22;13600;50.816;4.416;2022-11-20T15:52:21;9.60;99.90
25753;DHT22;13600;50.816;4.416;2022-11-20T15:54:47;9.60;99.90
25753;DHT22;13600;50.816;4.416;2022-11-20T15:57:13;9.60;99.90
25753;DHT22;13600;50.816;4.416;2022-11-20T15:59:39;9.40;99.90
25753;DHT22;13600;50.816;4.416;2022-11-20T16:02:13;9.40;99.90
25753;DHT22;13600;50.816;4.416;2022-11-20T16:04:39;9.50;99.90
25753;DHT22;13600;50.816;4.416;2022-11-20T16:07:05;9.50;99.90
25753;DHT22;13600;50.816;4.416;2022-11-20T16:09:32;9.50;99.90
25753;DHT22;13600;50.816;4.416;2022-11-20T16:11:58;9.60;99.90
25753;DHT22;13600;50.816;4.416;2022-11-20T16:14:28;9.60;99.90
25753;DHT22;13600;50.816;4.416;2022-11-20T16:17:12;9.60;99.90
25753;DHT22;13600;50.816;4.416;2022-11-20T16:19:38;9.60;99.90
25753;DHT22;13600;50.816;4.416;2022-11-20T16:22:04;9.70;99.90
25753;DHT22;13600;50.816;4.416;2022-11-20T16:24:30;9.70;99.90
25753;DHT22;13600;50.816;4.416;2022-11-20T16:26:56;9.70;99.90
25753;DHT22;13600;50.816;4.416;2022-11-20T16:29:22;9.60;99.90
25753;DHT22;13600;50.816;4.416;2022-11-20T16:31:47;9.60;99.90
25753;DHT22;13600;50.816;4.416;2022-11-20T16:34:16;9.60;99.90
25753;DHT22;13600;50.816;4.416;2022-11-20T16:36:43;9.60;99.90
25753;DHT22;13600;50.816;4.416;2022-11-20T16:39:10;9.60;99.90
25753;DHT22;13600;50.816;4.416;2022-11-20T16:41:36;9.50;99.90
25753;DHT22;13600;50.816;4.416;2022-11-20T16:44:07;9.40;99.90
25753;DHT22;13600;50.816;4.416;2022-11-20T16:46:33;9.50;99.90
25753;DHT22;13600;50.816;4.416;2022-11-20T16:49:01;9.50;99.90
25753;DHT22;13600;50.816;4.416;2022-11-20T16:51:29;9.50;99.90
25753;DHT22;13600;50.816;4.416;2022-11-20T16:53:56;9.50;99.90
25753;DHT22;13600;50.816;4.416;2022-11-20T16:56:26;9.50;99.90
25753;DHT22;13600;50.816;4.416;2022-11-20T16:58:54;9.50;99.90
25753;DHT22;13600;50.816;4.416;2022-11-20T17:01:24;9.50;99.90
25753;DHT22;13600;50.816;4.416;2022-11-20T17:03:58;9.50;99.90
25753;DHT22;13600;50.816;4.416;2022-11-20T17:06:30;9.60;99.90
25753;DHT22;13600;50.816;4.416;2022-11-20T17:08:56;9.70;99.90
25753;DHT22;13600;50.816;4.416;2022-11-20T17:11:22;9.70;99.90
25753;DHT22;13600;50.816;4.416;2022-11-20T17:13:48;9.70;99.90
25753;DHT22;13600;50.816;4.416;2022-11-20T17:16:19;9.70;99.90
25753;DHT22;13600;50.816;4.416;2022-11-20T17:18:46;9.80;99.90
25753;DHT22;13600;50.816;4.416;2022-11-20T17:21:12;9.70;99.90
25753;DHT22;13600;50.816;4.416;2022-11-20T17:23:40;9.70;99.90
25753;DHT22;13600;50.816;4.416;2022-11-20T17:26:15;9.70;99.90